sensor_id;sensor_type;location;lat;lon;timestamp;temperature;humidity
19952;DHT22;10137;49.406;19.484;2023-08-06T00:01:27;18.50;99.90
19952;DHT22;10137;49.406;19.484;2023-08-06T00:03:55;18.50;99.90
19952;DHT22;10137;49.406;19.484;2023-08-06T00:06:23;18.50;99.90
19952;DHT22;10137;49.406;19.484;2023-08-06T00:08:52;18.50;99.90
19952;DHT22;10137;49.406;19.484;2023-08-06T00:11:21;18.50;99.90
19952;DHT22;10137;49.406;19.484;2023-08-06T00:13:51;18.50;99.90
19952;DHT22;10137;49.406;19.484;2023-08-06T00:16:19;18.50;99.90
19952;DHT22;10137;49.406;19.484;2023-08-06T00:18:47;18.50;99.90
19952;DHT22;10137;49.406;19.484;2023-08-06T00:21:15;18.40;99.90
19952;DHT22;10137;49.406;19.484;2023-08-06T00:23:44;18.40;99.90
19952;DHT22;10137;49.406;19.484;2023-08-06T00:26:12;18.40;99.90
19952;DHT22;10137;49.406;19.484;2023-08-06T00:28:40;18.40;99.90
19952;DHT22;10137;49.406;19.484;2023-08-06T00:31:10;18.30;99.90
19952;DHT22;10137;49.406;19.484;2023-08-06T00:33:38;18.30;99.90
19952;DHT22;10137;49.406;19.484;2023-08-06T00:36:06;18.30;99.90
19952;DHT22;10137;49.406;19.484;2023-08-06T00:38:34;18.30;99.90
19952;DHT22;10137;49.406;19.484;2023-08-06T00:41:02;18.40;99.90
19952;DHT22;10137;49.406;19.484;2023-08-06T00:43:30;18.30;99.90
19952;DHT22;10137;49.406;19.484;2023-08-06T00:45:59;18.30;99.90
19952;DHT22;10137;49.406;19.484;2023-08-06T00:48:29;18.30;99.90
19952;DHT22;10137;49.406;19.484;2023-08-06T00:50:57;18.30;99.90
19952;DHT22;10137;49.406;19.484;2023-08-06T00:53:25;18.30;99.90
19952;DHT22;10137;49.406;19.484;2023-08-06T00:55:53;18.20;99.90
19952;DHT22;10137;49.406;19.484;2023-08-06T00:58:21;18.20;99.90
19952;DHT22;10137;49.406;19.484;2023-08-06T01:00:49;18.20;99.90
19952;DHT22;10137;49.406;19.484;2023-08-06T01:03:17;18.10;99.90
19952;DHT22;10137;49.406;19.484;2023-08-06T01:05:47;18.10;99.90
19952;DHT22;10137;49.406;19.484;2023-08-06T01:08:25;18.10;99.90
19952;DHT22;10137;49.406;19.484;2023-08-06T01:11:04;18.10;99.90
19952;DHT22;10137;49.406;19.484;2023-08-06T01:13:37;18.10;99.90
19952;DHT22;10137;49.406;19.484;2023-08-06T01:16:10;18.10;99.90
19952;DHT22;10137;49.406;19.484;2023-08-06T01:18:39;18.00;99.90
19952;DHT22;10137;49.406;19.484;2023-08-06T01:21:12;18.00;99.90
19952;DHT22;10137;49.406;19.484;2023-08-06T01:23:40;18.00;99.90
19952;DHT22;10137;49.406;19.484;2023-08-06T01:26:13;18.00;99.90
19952;DHT22;10137;49.406;19.484;2023-08-06T01:28:48;17.90;99.90
19952;DHT22;10137;49.406;19.484;2023-08-06T01:31:22;17.90;99.90
19952;DHT22;10137;49.406;19.484;2023-08-06T01:33:53;17.90;99.90
19952;DHT22;10137;49.406;19.484;2023-08-06T01:36:24;17.90;99.90
19952;DHT22;10137;49.406;19.484;2023-08-06T01:38:53;17.90;99.90
19952;DHT22;10137;49.406;19.484;2023-08-06T01:41:21;17.90;99.90
19952;DHT22;10137;49.406;19.484;2023-08-06T01:43:49;17.80;99.90
19952;DHT22;10137;49.406;19.484;2023-08-06T01:46:17;17.80;99.90
19952;DHT22;10137;49.406;19.484;2023-08-06T01:48:45;17.80;99.90
19952;DHT22;10137;49.406;19.484;2023-08-06T01:51:12;17.80;99.90
19952;DHT22;10137;49.406;19.484;2023-08-06T01:53:42;17.80;99.90
19952;DHT22;10137;49.406;19.484;2023-08-06T01:56:10;17.80;99.90
19952;DHT22;10137;49.406;19.484;2023-08-06T01:58:38;17.70;99.90
19952;DHT22;10137;49.406;19.484;2023-08-06T02:01:06;17.70;99.90
19952;DHT22;10137;49.406;19.484;2023-08-06T02:03:34;17.70;99.90
19952;DHT22;10137;49.406;19.484;2023-08-06T02:06:03;17.60;99.90
19952;DHT22;10137;49.406;19.484;2023-08-06T02:08:31;17.60;99.90
19952;DHT22;10137;49.406;19.484;2023-08-06T02:11:01;17.60;99.90
19952;DHT22;10137;49.406;19.484;2023-08-06T02:13:29;17.60;99.90
19952;DHT22;10137;49.406;19.484;2023-08-06T02:15:57;17.60;99.90
19952;DHT22;10137;49.406;19.484;2023-08-06T02:18:26;17.60;99.90
19952;DHT22;10137;49.406;19.484;2023-08-06T02:20:57;17.60;99.90
19952;DHT22;10137;49.406;19.484;2023-08-06T02:23:26;17.60;99.90
19952;DHT22;10137;49.406;19.484;2023-08-06T02:26:02;17.50;99.90
19952;DHT22;10137;49.406;19.484;2023-08-06T02:28:31;17.50;99.90
19952;DHT22;10137;49.406;19.484;2023-08-06T02:30:59;17.50;99.90
19952;DHT22;10137;49.406;19.484;2023-08-06T02:33:27;17.50;99.90
19952;DHT22;10137;49.406;19.484;2023-08-06T02:36:04;17.50;99.90
19952;DHT22;10137;49.406;19.484;2023-08-06T02:38:32;17.50;99.90
19952;DHT22;10137;49.406;19.484;2023-08-06T02:41:05;17.60;99.90
19952;DHT22;10137;49.406;19.484;2023-08-06T02:43:33;17.60;99.90
19952;DHT22;10137;49.406;19.484;2023-08-06T02:46:06;17.60;99.90
19952;DHT22;10137;49.406;19.484;2023-08-06T02:48:34;17.60;99.90
19952;DHT22;10137;49.406;19.484;2023-08-06T02:51:01;17.60;99.90
19952;DHT22;10137;49.406;19.484;2023-08-06T02:53:29;17.60;99.90
19952;DHT22;10137;49.406;19.484;2023-08-06T02:55:58;17.50;99.90
19952;DHT22;10137;49.406;19.484;2023-08-06T02:58:28;17.40;99.90
19952;DHT22;10137;49.406;19.484;2023-08-06T03:01:03;17.40;99.90
19952;DHT22;10137;49.406;19.484;2023-08-06T03:03:32;17.40;99.90
19952;DHT22;10137;49.406;19.484;2023-08-06T03:06:00;17.40;99.90
19952;DHT22;10137;49.406;19.484;2023-08-06T03:08:29;17.40;99.90
19952;DHT22;10137;49.406;19.484;2023-08-06T03:10:57;17.40;99.90
19952;DHT22;10137;49.406;19.484;2023-08-06T03:13:25;17.30;99.90
19952;DHT22;10137;49.406;19.484;2023-08-06T03:15:57;17.30;99.90
19952;DHT22;10137;49.406;19.484;2023-08-06T03:18:25;17.30;99.90
19952;DHT22;10137;49.406;19.484;2023-08-06T03:20:54;17.40;99.90
19952;DHT22;10137;49.406;19.484;2023-08-06T03:23:23;17.40;99.90
19952;DHT22;10137;49.406;19.484;2023-08-06T03:25:51;17.30;99.90
19952;DHT22;10137;49.406;19.484;2023-08-06T03:28:19;17.30;99.90
19952;DHT22;10137;49.406;19.484;2023-08-06T03:30:57;17.20;99.90
19952;DHT22;10137;49.406;19.484;2023-08-06T03:33:27;17.20;99.90
19952;DHT22;10137;49.406;19.484;2023-08-06T03:35:55;17.20;99.90
19952;DHT22;10137;49.406;19.484;2023-08-06T03:38:24;17.20;99.90
19952;DHT22;10137;49.406;19.484;2023-08-06T03:40:52;17.20;99.90
19952;DHT22;10137;49.406;19.484;2023-08-06T03:43:20;17.30;99.90
19952;DHT22;10137;49.406;19.484;2023-08-06T03:45:48;17.30;99.90
19952;DHT22;10137;49.406;19.484;2023-08-06T03:48:16;17.40;99.90
19952;DHT22;10137;49.406;19.484;2023-08-06T03:50:45;17.40;99.90
19952;DHT22;10137;49.406;19.484;2023-08-06T03:53:12;17.40;99.90
19952;DHT22;10137;49.406;19.484;2023-08-06T03:55:40;17.40;99.90
19952;DHT22;10137;49.406;19.484;2023-08-06T03:58:09;17.40;99.90
19952;DHT22;10137;49.406;19.484;2023-08-06T04:00:37;17.40;99.90
19952;DHT22;10137;49.406;19.484;2023-08-06T04:03:05;17.40;99.90
19952;DHT22;10137;49.406;19.484;2023-08-06T04:05:33;17.40;99.90
19952;DHT22;10137;49.406;19.484;2023-08-06T04:08:03;17.40;99.90
19952;DHT22;10137;49.406;19.484;2023-08-06T04:10:31;17.40;99.90
19952;DHT22;10137;49.406;19.484;2023-08-06T04:12:58;17.50;99.90
19952;DHT22;10137;49.406;19.484;2023-08-06T04:15:26;17.40;99.90
19952;DHT22;10137;49.406;19.484;2023-08-06T04:17:55;17.40;99.90
19952;DHT22;10137;49.406;19.484;2023-08-06T04:20:24;17.40;99.90
19952;DHT22;10137;49.406;19.484;2023-08-06T04:22:54;17.40;99.90
19952;DHT22;10137;49.406;19.484;2023-08-06T04:25:24;17.30;99.90
19952;DHT22;10137;49.406;19.484;2023-08-06T04:27:52;17.30;99.90
19952;DHT22;10137;49.406;19.484;2023-08-06T04:30:21;17.30;99.90
19952;DHT22;10137;49.406;19.484;2023-08-06T04:32:52;17.20;99.90
19952;DHT22;10137;49.406;19.484;2023-08-06T04:35:20;17.20;99.90
19952;DHT22;10137;49.406;19.484;2023-08-06T04:37:48;17.30;99.90
19952;DHT22;10137;49.406;19.484;2023-08-06T04:40:17;17.30;99.90
19952;DHT22;10137;49.406;19.484;2023-08-06T04:42:46;17.30;99.90
19952;DHT22;10137;49.406;19.484;2023-08-06T04:45:14;17.20;99.90
19952;DHT22;10137;49.406;19.484;2023-08-06T04:47:43;17.20;99.90
19952;DHT22;10137;49.406;19.484;2023-08-06T04:50:11;17.20;99.90
19952;DHT22;10137;49.406;19.484;2023-08-06T04:52:38;17.20;99.90
19952;DHT22;10137;49.406;19.484;2023-08-06T04:55:06;17.20;99.90
19952;DHT22;10137;49.406;19.484;2023-08-06T04:57:34;17.30;99.90
19952;DHT22;10137;49.406;19.484;2023-08-06T05:00:05;17.20;99.90
19952;DHT22;10137;49.406;19.484;2023-08-06T05:02:33;17.20;99.90
19952;DHT22;10137;49.406;19.484;2023-08-06T05:05:05;17.20;99.90
19952;DHT22;10137;49.406;19.484;2023-08-06T05:07:33;17.20;99.90
19952;DHT22;10137;49.406;19.484;2023-08-06T05:10:00;17.30;99.90
19952;DHT22;10137;49.406;19.484;2023-08-06T05:12:30;17.30;99.90
19952;DHT22;10137;49.406;19.484;2023-08-06T05:14:58;17.40;99.90
19952;DHT22;10137;49.406;19.484;2023-08-06T05:17:28;17.40;99.90
19952;DHT22;10137;49.406;19.484;2023-08-06T05:19:57;17.30;99.90
19952;DHT22;10137;49.406;19.484;2023-08-06T05:22:25;17.30;99.90
19952;DHT22;10137;49.406;19.484;2023-08-06T05:24:53;17.30;99.90
19952;DHT22;10137;49.406;19.484;2023-08-06T05:27:21;17.40;99.90
19952;DHT22;10137;49.406;19.484;2023-08-06T05:29:50;17.40;99.90
19952;DHT22;10137;49.406;19.484;2023-08-06T05:32:18;17.40;99.90
19952;DHT22;10137;49.406;19.484;2023-08-06T05:34:48;17.40;99.90
19952;DHT22;10137;49.406;19.484;2023-08-06T05:37:16;17.30;99.90
19952;DHT22;10137;49.406;19.484;2023-08-06T05:39:44;17.40;99.90
19952;DHT22;10137;49.406;19.484;2023-08-06T05:42:12;17.30;99.90
19952;DHT22;10137;49.406;19.484;2023-08-06T05:44:40;17.40;99.90
19952;DHT22;10137;49.406;19.484;2023-08-06T05:47:09;17.40;99.90
19952;DHT22;10137;49.406;19.484;2023-08-06T05:49:37;17.40;99.90
19952;DHT22;10137;49.406;19.484;2023-08-06T05:52:06;17.40;99.90
19952;DHT22;10137;49.406;19.484;2023-08-06T05:54:35;17.40;99.90
19952;DHT22;10137;49.406;19.484;2023-08-06T05:57:03;17.40;99.90
19952;DHT22;10137;49.406;19.484;2023-08-06T05:59:32;17.40;99.90
19952;DHT22;10137;49.406;19.484;2023-08-06T06:02:00;17.40;99.90
19952;DHT22;10137;49.406;19.484;2023-08-06T06:04:28;17.40;99.90
19952;DHT22;10137;49.406;19.484;2023-08-06T06:06:56;17.40;99.90
19952;DHT22;10137;49.406;19.484;2023-08-06T06:09:26;17.40;99.90
19952;DHT22;10137;49.406;19.484;2023-08-06T06:11:55;17.40;99.90
19952;DHT22;10137;49.406;19.484;2023-08-06T06:14:23;17.40;99.90
19952;DHT22;10137;49.406;19.484;2023-08-06T06:16:51;17.40;99.90
19952;DHT22;10137;49.406;19.484;2023-08-06T06:19:20;17.40;99.90
19952;DHT22;10137;49.406;19.484;2023-08-06T06:21:48;17.40;99.90
19952;DHT22;10137;49.406;19.484;2023-08-06T06:24:16;17.50;99.90
19952;DHT22;10137;49.406;19.484;2023-08-06T06:26:46;17.50;99.90
19952;DHT22;10137;49.406;19.484;2023-08-06T06:29:14;17.50;99.90
19952;DHT22;10137;49.406;19.484;2023-08-06T06:31:42;17.50;99.90
19952;DHT22;10137;49.406;19.484;2023-08-06T06:34:10;17.50;99.90
19952;DHT22;10137;49.406;19.484;2023-08-06T06:36:39;17.50;99.90
19952;DHT22;10137;49.406;19.484;2023-08-06T06:39:07;17.50;99.90
19952;DHT22;10137;49.406;19.484;2023-08-06T06:41:35;17.60;99.90
19952;DHT22;10137;49.406;19.484;2023-08-06T06:44:05;17.50;99.90
19952;DHT22;10137;49.406;19.484;2023-08-06T06:46:33;17.60;99.90
19952;DHT22;10137;49.406;19.484;2023-08-06T06:49:01;17.60;99.90
19952;DHT22;10137;49.406;19.484;2023-08-06T06:51:29;17.60;99.90
19952;DHT22;10137;49.406;19.484;2023-08-06T06:53:58;17.50;99.90
19952;DHT22;10137;49.406;19.484;2023-08-06T06:56:26;17.50;99.90
19952;DHT22;10137;49.406;19.484;2023-08-06T06:58:54;17.50;99.90
19952;DHT22;10137;49.406;19.484;2023-08-06T07:01:24;17.50;99.90
19952;DHT22;10137;49.406;19.484;2023-08-06T07:03:52;17.50;99.90
19952;DHT22;10137;49.406;19.484;2023-08-06T07:06:21;17.50;99.90
19952;DHT22;10137;49.406;19.484;2023-08-06T07:08:49;17.50;99.90
19952;DHT22;10137;49.406;19.484;2023-08-06T07:11:17;17.60;99.90
19952;DHT22;10137;49.406;19.484;2023-08-06T07:13:45;17.60;99.90
19952;DHT22;10137;49.406;19.484;2023-08-06T07:16:14;17.60;99.90
19952;DHT22;10137;49.406;19.484;2023-08-06T07:18:43;17.70;99.90
19952;DHT22;10137;49.406;19.484;2023-08-06T07:21:11;17.70;99.90
19952;DHT22;10137;49.406;19.484;2023-08-06T07:23:39;17.70;99.90
19952;DHT22;10137;49.406;19.484;2023-08-06T07:26:07;17.70;99.90
19952;DHT22;10137;49.406;19.484;2023-08-06T07:28:36;17.70;99.90
19952;DHT22;10137;49.406;19.484;2023-08-06T07:31:04;17.70;99.90
19952;DHT22;10137;49.406;19.484;2023-08-06T07:33:32;17.70;99.90
19952;DHT22;10137;49.406;19.484;2023-08-06T07:36:09;17.70;99.90
19952;DHT22;10137;49.406;19.484;2023-08-06T07:38:37;17.80;99.90
19952;DHT22;10137;49.406;19.484;2023-08-06T07:41:06;17.80;99.90
19952;DHT22;10137;49.406;19.484;2023-08-06T07:43:34;17.80;99.90
19952;DHT22;10137;49.406;19.484;2023-08-06T07:46:02;17.80;99.90
19952;DHT22;10137;49.406;19.484;2023-08-06T07:48:31;17.80;99.90
19952;DHT22;10137;49.406;19.484;2023-08-06T07:50:59;17.80;99.90
19952;DHT22;10137;49.406;19.484;2023-08-06T07:53:28;17.80;99.90
19952;DHT22;10137;49.406;19.484;2023-08-06T07:55:58;17.90;99.90
19952;DHT22;10137;49.406;19.484;2023-08-06T07:58:29;17.90;99.90
19952;DHT22;10137;49.406;19.484;2023-08-06T08:00:58;17.90;99.90
19952;DHT22;10137;49.406;19.484;2023-08-06T08:03:27;18.00;99.90
19952;DHT22;10137;49.406;19.484;2023-08-06T08:05:55;18.00;99.90
19952;DHT22;10137;49.406;19.484;2023-08-06T08:08:28;18.00;99.90
19952;DHT22;10137;49.406;19.484;2023-08-06T08:10:57;18.00;99.90
19952;DHT22;10137;49.406;19.484;2023-08-06T08:13:26;18.00;99.90
19952;DHT22;10137;49.406;19.484;2023-08-06T08:15:57;18.00;99.90
19952;DHT22;10137;49.406;19.484;2023-08-06T08:18:25;17.90;99.90
19952;DHT22;10137;49.406;19.484;2023-08-06T08:20:54;18.00;99.90
19952;DHT22;10137;49.406;19.484;2023-08-06T08:23:22;18.00;99.90
19952;DHT22;10137;49.406;19.484;2023-08-06T08:25:51;18.00;99.90
19952;DHT22;10137;49.406;19.484;2023-08-06T08:28:20;18.00;99.90
19952;DHT22;10137;49.406;19.484;2023-08-06T08:30:49;18.00;99.90
19952;DHT22;10137;49.406;19.484;2023-08-06T08:33:17;18.00;99.90
19952;DHT22;10137;49.406;19.484;2023-08-06T08:35:46;18.10;99.90
19952;DHT22;10137;49.406;19.484;2023-08-06T08:38:14;18.10;99.90
19952;DHT22;10137;49.406;19.484;2023-08-06T08:40:46;18.10;99.90
19952;DHT22;10137;49.406;19.484;2023-08-06T08:43:16;18.10;99.90
19952;DHT22;10137;49.406;19.484;2023-08-06T08:48:18;18.10;99.90
19952;DHT22;10137;49.406;19.484;2023-08-06T08:50:49;18.10;99.90
19952;DHT22;10137;49.406;19.484;2023-08-06T08:53:18;18.10;99.90
19952;DHT22;10137;49.406;19.484;2023-08-06T08:55:48;18.20;99.90
19952;DHT22;10137;49.406;19.484;2023-08-06T08:58:17;18.20;99.90
19952;DHT22;10137;49.406;19.484;2023-08-06T09:00:46;18.20;99.90
19952;DHT22;10137;49.406;19.484;2023-08-06T09:03:16;18.20;99.90
19952;DHT22;10137;49.406;19.484;2023-08-06T09:05:45;18.30;99.90
19952;DHT22;10137;49.406;19.484;2023-08-06T09:08:18;18.20;99.90
19952;DHT22;10137;49.406;19.484;2023-08-06T09:10:49;18.30;99.90
19952;DHT22;10137;49.406;19.484;2023-08-06T09:13:20;18.30;99.90
19952;DHT22;10137;49.406;19.484;2023-08-06T09:15:50;18.30;99.90
19952;DHT22;10137;49.406;19.484;2023-08-06T09:18:25;18.30;99.90
19952;DHT22;10137;49.406;19.484;2023-08-06T09:20:53;18.30;99.90
19952;DHT22;10137;49.406;19.484;2023-08-06T09:23:27;18.20;99.90
19952;DHT22;10137;49.406;19.484;2023-08-06T09:25:57;18.20;99.90
19952;DHT22;10137;49.406;19.484;2023-08-06T09:28:36;18.20;99.90
19952;DHT22;10137;49.406;19.484;2023-08-06T09:31:05;18.20;99.90
19952;DHT22;10137;49.406;19.484;2023-08-06T09:33:37;18.20;99.90
19952;DHT22;10137;49.406;19.484;2023-08-06T09:36:09;18.20;99.90
19952;DHT22;10137;49.406;19.484;2023-08-06T09:38:41;18.20;99.90
19952;DHT22;10137;49.406;19.484;2023-08-06T09:41:09;18.10;99.90
19952;DHT22;10137;49.406;19.484;2023-08-06T09:43:44;18.10;99.90
19952;DHT22;10137;49.406;19.484;2023-08-06T09:46:13;18.10;99.90
19952;DHT22;10137;49.406;19.484;2023-08-06T09:48:45;18.00;99.90
19952;DHT22;10137;49.406;19.484;2023-08-06T09:51:13;18.00;99.90
19952;DHT22;10137;49.406;19.484;2023-08-06T09:53:42;18.00;99.90
19952;DHT22;10137;49.406;19.484;2023-08-06T09:56:12;18.00;99.90
19952;DHT22;10137;49.406;19.484;2023-08-06T09:58:42;18.00;99.90
19952;DHT22;10137;49.406;19.484;2023-08-06T10:01:12;18.00;99.90
19952;DHT22;10137;49.406;19.484;2023-08-06T10:03:40;18.00;99.90
19952;DHT22;10137;49.406;19.484;2023-08-06T10:06:09;18.10;99.90
19952;DHT22;10137;49.406;19.484;2023-08-06T10:08:38;18.00;99.90
19952;DHT22;10137;49.406;19.484;2023-08-06T10:11:09;18.00;99.90
19952;DHT22;10137;49.406;19.484;2023-08-06T10:13:39;18.00;99.90
19952;DHT22;10137;49.406;19.484;2023-08-06T10:16:07;18.10;99.90
19952;DHT22;10137;49.406;19.484;2023-08-06T10:18:38;18.10;99.90
19952;DHT22;10137;49.406;19.484;2023-08-06T10:21:08;18.10;99.90
19952;DHT22;10137;49.406;19.484;2023-08-06T10:23:36;18.20;99.90
19952;DHT22;10137;49.406;19.484;2023-08-06T10:26:05;18.10;99.90
19952;DHT22;10137;49.406;19.484;2023-08-06T10:28:37;18.10;99.90
19952;DHT22;10137;49.406;19.484;2023-08-06T10:31:06;18.10;99.90
19952;DHT22;10137;49.406;19.484;2023-08-06T10:33:45;18.10;99.90
19952;DHT22;10137;49.406;19.484;2023-08-06T10:36:14;18.10;99.90
19952;DHT22;10137;49.406;19.484;2023-08-06T10:38:45;18.10;99.90
19952;DHT22;10137;49.406;19.484;2023-08-06T10:41:21;17.90;99.90
19952;DHT22;10137;49.406;19.484;2023-08-06T10:43:50;17.90;99.90
19952;DHT22;10137;49.406;19.484;2023-08-06T10:46:27;17.90;99.90
19952;DHT22;10137;49.406;19.484;2023-08-06T10:48:56;17.90;99.90
19952;DHT22;10137;49.406;19.484;2023-08-06T10:51:23;17.80;99.90
19952;DHT22;10137;49.406;19.484;2023-08-06T10:53:52;17.70;99.90
19952;DHT22;10137;49.406;19.484;2023-08-06T10:56:22;17.70;99.90
19952;DHT22;10137;49.406;19.484;2023-08-06T10:58:53;17.20;99.90
19952;DHT22;10137;49.406;19.484;2023-08-06T11:01:22;17.00;99.90
19952;DHT22;10137;49.406;19.484;2023-08-06T11:03:50;16.90;99.90
19952;DHT22;10137;49.406;19.484;2023-08-06T11:06:21;16.70;99.90
19952;DHT22;10137;49.406;19.484;2023-08-06T11:08:51;16.40;99.90
19952;DHT22;10137;49.406;19.484;2023-08-06T11:11:21;16.10;99.90
19952;DHT22;10137;49.406;19.484;2023-08-06T11:13:51;16.00;99.90
19952;DHT22;10137;49.406;19.484;2023-08-06T11:16:20;16.00;99.90
19952;DHT22;10137;49.406;19.484;2023-08-06T11:18:50;16.00;99.90
19952;DHT22;10137;49.406;19.484;2023-08-06T11:21:21;15.90;99.90
19952;DHT22;10137;49.406;19.484;2023-08-06T11:23:51;15.90;99.90
19952;DHT22;10137;49.406;19.484;2023-08-06T11:26:20;15.90;99.90
19952;DHT22;10137;49.406;19.484;2023-08-06T11:28:49;15.90;99.90
19952;DHT22;10137;49.406;19.484;2023-08-06T11:31:21;15.90;99.90
19952;DHT22;10137;49.406;19.484;2023-08-06T11:33:50;16.10;99.90
19952;DHT22;10137;49.406;19.484;2023-08-06T11:36:30;16.20;99.90
19952;DHT22;10137;49.406;19.484;2023-08-06T11:38:59;16.20;99.90
19952;DHT22;10137;49.406;19.484;2023-08-06T11:41:28;16.20;99.90
19952;DHT22;10137;49.406;19.484;2023-08-06T11:43:57;16.20;99.90
19952;DHT22;10137;49.406;19.484;2023-08-06T11:46:25;16.30;99.90
19952;DHT22;10137;49.406;19.484;2023-08-06T11:48:55;16.30;99.90
19952;DHT22;10137;49.406;19.484;2023-08-06T11:51:23;16.30;99.90
19952;DHT22;10137;49.406;19.484;2023-08-06T11:53:56;16.30;99.90
19952;DHT22;10137;49.406;19.484;2023-08-06T11:56:24;16.30;99.90
19952;DHT22;10137;49.406;19.484;2023-08-06T11:58:54;16.30;99.90
19952;DHT22;10137;49.406;19.484;2023-08-06T12:01:23;16.30;99.90
19952;DHT22;10137;49.406;19.484;2023-08-06T12:03:51;16.30;99.90
19952;DHT22;10137;49.406;19.484;2023-08-06T12:06:19;16.20;99.90
19952;DHT22;10137;49.406;19.484;2023-08-06T12:08:48;16.10;99.90
19952;DHT22;10137;49.406;19.484;2023-08-06T12:11:21;16.00;99.90
19952;DHT22;10137;49.406;19.484;2023-08-06T12:13:51;16.00;99.90
19952;DHT22;10137;49.406;19.484;2023-08-06T12:16:19;16.00;99.90
19952;DHT22;10137;49.406;19.484;2023-08-06T12:18:48;15.90;99.90
19952;DHT22;10137;49.406;19.484;2023-08-06T12:21:17;15.90;99.90
19952;DHT22;10137;49.406;19.484;2023-08-06T12:23:45;15.80;99.90
19952;DHT22;10137;49.406;19.484;2023-08-06T12:26:13;15.70;99.90
19952;DHT22;10137;49.406;19.484;2023-08-06T12:28:43;15.70;99.90
19952;DHT22;10137;49.406;19.484;2023-08-06T12:31:11;15.70;99.90
19952;DHT22;10137;49.406;19.484;2023-08-06T12:33:39;15.60;99.90
19952;DHT22;10137;49.406;19.484;2023-08-06T12:36:07;15.50;99.90
19952;DHT22;10137;49.406;19.484;2023-08-06T12:38:35;15.50;99.90
19952;DHT22;10137;49.406;19.484;2023-08-06T12:41:03;15.40;99.90
19952;DHT22;10137;49.406;19.484;2023-08-06T12:43:31;15.30;99.90
19952;DHT22;10137;49.406;19.484;2023-08-06T12:46:01;15.30;99.90
19952;DHT22;10137;49.406;19.484;2023-08-06T12:48:30;15.30;99.90
19952;DHT22;10137;49.406;19.484;2023-08-06T12:50:58;15.20;99.90
19952;DHT22;10137;49.406;19.484;2023-08-06T12:53:26;15.20;99.90
19952;DHT22;10137;49.406;19.484;2023-08-06T12:55:54;15.20;99.90
19952;DHT22;10137;49.406;19.484;2023-08-06T12:58:22;15.00;99.90
19952;DHT22;10137;49.406;19.484;2023-08-06T13:00:51;15.10;99.90
19952;DHT22;10137;49.406;19.484;2023-08-06T13:03:20;15.10;99.90
19952;DHT22;10137;49.406;19.484;2023-08-06T13:05:48;15.20;99.90
19952;DHT22;10137;49.406;19.484;2023-08-06T13:08:17;15.20;99.90
19952;DHT22;10137;49.406;19.484;2023-08-06T13:10:45;15.20;99.90
19952;DHT22;10137;49.406;19.484;2023-08-06T13:13:13;15.20;99.90
19952;DHT22;10137;49.406;19.484;2023-08-06T13:15:41;15.20;99.90
19952;DHT22;10137;49.406;19.484;2023-08-06T13:18:10;15.30;99.90
19952;DHT22;10137;49.406;19.484;2023-08-06T13:20:39;15.30;99.90
19952;DHT22;10137;49.406;19.484;2023-08-06T13:23:08;15.20;99.90
19952;DHT22;10137;49.406;19.484;2023-08-06T13:25:36;15.20;99.90
19952;DHT22;10137;49.406;19.484;2023-08-06T13:28:05;15.10;99.90
19952;DHT22;10137;49.406;19.484;2023-08-06T13:30:34;15.20;99.90
19952;DHT22;10137;49.406;19.484;2023-08-06T13:33:08;15.20;99.90
19952;DHT22;10137;49.406;19.484;2023-08-06T13:35:36;15.20;99.90
19952;DHT22;10137;49.406;19.484;2023-08-06T13:38:06;15.30;99.90
19952;DHT22;10137;49.406;19.484;2023-08-06T13:40:35;15.30;99.90
19952;DHT22;10137;49.406;19.484;2023-08-06T13:43:04;15.30;99.90
19952;DHT22;10137;49.406;19.484;2023-08-06T13:45:32;15.30;99.90
19952;DHT22;10137;49.406;19.484;2023-08-06T13:48:01;15.40;99.90
19952;DHT22;10137;49.406;19.484;2023-08-06T13:50:30;15.40;99.90
19952;DHT22;10137;49.406;19.484;2023-08-06T13:52:57;15.40;99.90
19952;DHT22;10137;49.406;19.484;2023-08-06T13:55:26;15.40;99.90
19952;DHT22;10137;49.406;19.484;2023-08-06T13:57:55;15.40;99.90
19952;DHT22;10137;49.406;19.484;2023-08-06T14:00:23;15.50;99.90
19952;DHT22;10137;49.406;19.484;2023-08-06T14:02:52;15.50;99.90
19952;DHT22;10137;49.406;19.484;2023-08-06T14:05:20;15.50;99.90
19952;DHT22;10137;49.406;19.484;2023-08-06T14:07:48;15.50;99.90
19952;DHT22;10137;49.406;19.484;2023-08-06T14:10:17;15.50;99.90
19952;DHT22;10137;49.406;19.484;2023-08-06T14:12:46;15.50;99.90
19952;DHT22;10137;49.406;19.484;2023-08-06T14:15:14;15.50;99.90
19952;DHT22;10137;49.406;19.484;2023-08-06T14:17:43;15.40;99.90
19952;DHT22;10137;49.406;19.484;2023-08-06T14:20:11;15.40;99.90
19952;DHT22;10137;49.406;19.484;2023-08-06T14:22:39;15.50;99.90
19952;DHT22;10137;49.406;19.484;2023-08-06T14:25:08;15.50;99.90
19952;DHT22;10137;49.406;19.484;2023-08-06T14:27:36;15.50;99.90
19952;DHT22;10137;49.406;19.484;2023-08-06T14:30:11;15.50;99.90
19952;DHT22;10137;49.406;19.484;2023-08-06T14:32:39;15.40;99.90
19952;DHT22;10137;49.406;19.484;2023-08-06T14:35:08;15.50;99.90
19952;DHT22;10137;49.406;19.484;2023-08-06T14:37:36;15.50;99.90
19952;DHT22;10137;49.406;19.484;2023-08-06T14:40:07;15.50;99.90
19952;DHT22;10137;49.406;19.484;2023-08-06T14:42:35;15.40;99.90
19952;DHT22;10137;49.406;19.484;2023-08-06T14:45:04;15.40;99.90
19952;DHT22;10137;49.406;19.484;2023-08-06T14:47:33;15.30;99.90
19952;DHT22;10137;49.406;19.484;2023-08-06T14:50:02;15.40;99.90
19952;DHT22;10137;49.406;19.484;2023-08-06T14:52:30;15.40;99.90
19952;DHT22;10137;49.406;19.484;2023-08-06T14:55:00;15.50;99.90
19952;DHT22;10137;49.406;19.484;2023-08-06T14:57:30;15.40;99.90
19952;DHT22;10137;49.406;19.484;2023-08-06T14:59:58;15.40;99.90
19952;DHT22;10137;49.406;19.484;2023-08-06T15:02:26;15.40;99.90
19952;DHT22;10137;49.406;19.484;2023-08-06T15:04:56;15.50;99.90
19952;DHT22;10137;49.406;19.484;2023-08-06T15:07:24;15.50;99.90
19952;DHT22;10137;49.406;19.484;2023-08-06T15:09:55;15.60;99.90
19952;DHT22;10137;49.406;19.484;2023-08-06T15:12:23;15.50;99.90
19952;DHT22;10137;49.406;19.484;2023-08-06T15:14:51;15.50;99.90
19952;DHT22;10137;49.406;19.484;2023-08-06T15:17:23;15.50;99.90
19952;DHT22;10137;49.406;19.484;2023-08-06T15:19:53;15.50;99.90
19952;DHT22;10137;49.406;19.484;2023-08-06T15:22:22;15.50;99.90
19952;DHT22;10137;49.406;19.484;2023-08-06T15:24:51;15.60;99.90
19952;DHT22;10137;49.406;19.484;2023-08-06T15:27:19;15.50;99.90
19952;DHT22;10137;49.406;19.484;2023-08-06T15:29:47;15.60;99.90